createdAt,value
2023-09-06T00:01:35.034Z,17.65
2023-09-06T00:04:11.163Z,17.62
2023-09-06T00:06:45.277Z,17.57
2023-09-06T00:09:17.219Z,17.54
2023-09-06T00:11:49.069Z,17.53
2023-09-06T00:14:21.948Z,17.50
2023-09-06T00:16:54.082Z,17.50
2023-09-06T00:19:25.871Z,17.50
2023-09-06T00:22:00.815Z,17.49
2023-09-06T00:24:33.009Z,17.46
2023-09-06T00:27:06.113Z,17.45
2023-09-06T00:29:40.010Z,17.42
2023-09-06T00:32:14.957Z,17.39
2023-09-06T00:34:49.846Z,17.39
2023-09-06T00:37:21.626Z,17.38
2023-09-06T00:39:54.250Z,17.36
2023-09-06T00:42:31.551Z,17.35
2023-09-06T00:45:07.123Z,17.33
2023-09-06T00:47:45.579Z,17.31
2023-09-06T00:50:18.736Z,17.29
2023-09-06T00:52:56.715Z,17.29
2023-09-06T00:55:28.569Z,17.28
2023-09-06T00:58:02.253Z,17.25
2023-09-06T01:00:34.674Z,17.25
2023-09-06T01:03:08.019Z,17.22
2023-09-06T01:05:55.513Z,17.17
2023-09-06T01:08:35.250Z,17.12
2023-09-06T01:11:16.011Z,17.08
2023-09-06T01:13:59.912Z,17.05
2023-09-06T01:16:45.679Z,17.03
2023-09-06T01:19:20.932Z,17.00
2023-09-06T01:22:11.571Z,16.98
2023-09-06T01:24:47.064Z,16.95
2023-09-06T01:27:19.776Z,16.94
2023-09-06T01:29:51.761Z,16.94
2023-09-06T01:32:23.964Z,16.93
2023-09-06T01:34:58.779Z,16.91
2023-09-06T01:37:31.335Z,16.91
2023-09-06T01:40:04.493Z,16.89
2023-09-06T01:42:36.377Z,16.87
2023-09-06T01:45:08.594Z,16.84
2023-09-06T01:47:44.592Z,16.81
2023-09-06T01:50:20.475Z,16.79
2023-09-06T01:52:56.282Z,16.77
2023-09-06T01:55:28.349Z,16.73
2023-09-06T01:58:00.505Z,16.69
2023-09-06T02:00:33.748Z,16.66
2023-09-06T02:03:15.747Z,16.62
2023-09-06T02:05:51.284Z,16.63
2023-09-06T02:08:27.654Z,16.62
2023-09-06T02:10:59.718Z,16.60
2023-09-06T02:13:31.559Z,16.61
2023-09-06T02:16:07.930Z,16.59
2023-09-06T02:18:40.772Z,16.57
2023-09-06T02:21:12.544Z,16.52
2023-09-06T02:23:44.470Z,16.45
2023-09-06T02:26:18.334Z,16.43
2023-09-06T02:28:51.910Z,16.42
2023-09-06T02:31:25.072Z,16.42
2023-09-06T02:33:57.078Z,16.38
2023-09-06T02:36:28.960Z,16.37
2023-09-06T02:39:00.754Z,16.37
2023-09-06T02:41:32.510Z,16.35
2023-09-06T02:44:04.451Z,16.36
2023-09-06T02:46:41.393Z,16.33
2023-09-06T02:49:14.212Z,16.32
2023-09-06T02:51:48.297Z,16.24
2023-09-06T02:54:20.410Z,16.22
2023-09-06T02:56:53.529Z,16.20
2023-09-06T02:59:25.392Z,16.19
2023-09-06T03:02:00.472Z,16.16
2023-09-06T03:04:38.968Z,16.10
2023-09-06T03:07:11.326Z,16.09
2023-09-06T03:09:46.172Z,16.06
2023-09-06T03:12:18.560Z,16.03
2023-09-06T03:14:56.883Z,16.01
2023-09-06T03:17:29.064Z,16.00
2023-09-06T03:20:07.661Z,15.97
2023-09-06T03:22:39.480Z,15.96
2023-09-06T03:25:11.395Z,15.95
2023-09-06T03:27:43.658Z,15.94
2023-09-06T03:30:16.352Z,15.96
2023-09-06T03:32:56.468Z,15.97
2023-09-06T03:35:28.605Z,15.96
2023-09-06T03:38:00.938Z,15.92
2023-09-06T03:40:39.878Z,15.91
2023-09-06T03:43:20.868Z,15.90
2023-09-06T03:45:57.484Z,15.88
2023-09-06T03:48:30.190Z,15.86
2023-09-06T03:51:03.736Z,15.85
2023-09-06T03:53:38.984Z,15.82
2023-09-06T03:56:13.836Z,15.81
2023-09-06T03:58:54.988Z,15.77
2023-09-06T04:01:32.314Z,15.71
2023-09-06T04:04:05.932Z,15.69
2023-09-06T04:06:45.574Z,15.67
2023-09-06T04:09:19.755Z,15.63
2023-09-06T04:11:54.106Z,15.62
2023-09-06T04:14:26.378Z,15.58
2023-09-06T04:17:06.398Z,15.60
2023-09-06T04:19:38.325Z,15.61
2023-09-06T04:22:10.165Z,15.62
2023-09-06T04:24:44.904Z,15.62
2023-09-06T04:27:16.762Z,15.61
2023-09-06T04:29:48.850Z,15.60
2023-09-06T04:32:21.311Z,15.60
2023-09-06T04:34:53.362Z,15.62
2023-09-06T04:37:29.585Z,15.64
2023-09-06T04:40:02.973Z,15.65
2023-09-06T04:42:36.545Z,15.67
2023-09-06T04:45:10.937Z,15.67
2023-09-06T04:47:44.648Z,15.67
2023-09-06T04:50:16.829Z,15.68
2023-09-06T04:52:54.178Z,15.70
2023-09-06T04:55:27.104Z,15.93
2023-09-06T04:58:01.222Z,16.41
2023-09-06T05:00:37.952Z,16.61
2023-09-06T05:03:15.134Z,16.85
2023-09-06T05:05:49.180Z,16.96
2023-09-06T05:08:23.533Z,17.10
2023-09-06T05:10:58.135Z,17.34
2023-09-06T05:13:31.531Z,17.59
2023-09-06T05:16:04.419Z,17.92
2023-09-06T05:18:41.298Z,18.13
2023-09-06T05:21:13.162Z,18.50
2023-09-06T05:23:45.093Z,18.80
2023-09-06T05:26:17.496Z,19.15
2023-09-06T05:28:51.850Z,19.46
2023-09-06T05:31:23.658Z,19.78
2023-09-06T05:34:00.579Z,20.03
2023-09-06T05:36:32.496Z,20.23
2023-09-06T05:39:07.551Z,20.54
2023-09-06T05:41:41.245Z,20.84
2023-09-06T05:44:13.265Z,21.06
2023-09-06T05:46:48.552Z,21.24
2023-09-06T05:49:23.543Z,21.47
2023-09-06T05:51:55.884Z,21.78
2023-09-06T05:54:28.020Z,22.04
2023-09-06T05:57:00.176Z,22.22
2023-09-06T05:59:33.784Z,22.45
2023-09-06T06:02:05.787Z,22.68
2023-09-06T06:04:38.175Z,22.89
2023-09-06T06:07:18.183Z,23.13
2023-09-06T06:09:50.224Z,23.37
2023-09-06T06:12:23.922Z,23.52
2023-09-06T06:14:58.329Z,23.45
2023-09-06T06:17:29.952Z,23.63
2023-09-06T06:20:08.118Z,23.88
2023-09-06T06:22:41.504Z,24.17
2023-09-06T06:25:13.638Z,24.27
2023-09-06T06:27:45.614Z,24.42
2023-09-06T06:30:18.964Z,24.72
2023-09-06T06:32:50.870Z,24.95
2023-09-06T06:35:22.767Z,25.12
2023-09-06T06:37:55.137Z,25.38
2023-09-06T06:40:27.423Z,25.66
2023-09-06T06:42:59.188Z,25.87
2023-09-06T06:45:31.033Z,26.01
2023-09-06T06:48:02.934Z,26.00
2023-09-06T06:50:34.872Z,26.01
2023-09-06T06:53:09.771Z,26.00
2023-09-06T06:55:44.237Z,26.19
2023-09-06T06:58:16.200Z,26.44
2023-09-06T07:00:48.034Z,26.79
2023-09-06T07:03:20.281Z,27.08
2023-09-06T07:05:52.142Z,27.14
2023-09-06T07:08:27.967Z,27.33
2023-09-06T07:11:00.814Z,27.35
2023-09-06T07:13:32.996Z,27.35
2023-09-06T07:16:06.624Z,27.50
2023-09-06T07:18:38.692Z,27.72
2023-09-06T07:21:13.836Z,27.95
2023-09-06T07:23:49.171Z,28.28
2023-09-06T07:26:21.278Z,28.56
2023-09-06T07:28:53.241Z,28.70
2023-09-06T07:31:25.075Z,28.80
2023-09-06T07:33:56.925Z,28.92
2023-09-06T07:36:30.724Z,29.11
2023-09-06T07:39:06.580Z,29.21
2023-09-06T07:41:41.201Z,29.38
2023-09-06T07:44:16.992Z,29.38
2023-09-06T07:46:50.013Z,29.57
2023-09-06T07:49:35.025Z,29.75
2023-09-06T07:52:09.633Z,30.01
2023-09-06T07:54:48.251Z,30.20
2023-09-06T07:57:20.687Z,30.38
2023-09-06T07:59:52.467Z,30.58
2023-09-06T08:02:27.049Z,30.71
2023-09-06T08:05:04.177Z,30.92
2023-09-06T08:07:37.756Z,30.96
2023-09-06T08:10:11.181Z,31.01
2023-09-06T08:12:44.538Z,31.22
2023-09-06T08:15:16.424Z,31.23
2023-09-06T08:17:48.838Z,31.10
2023-09-06T08:20:30.113Z,31.03
2023-09-06T08:23:05.698Z,31.06
2023-09-06T08:25:37.803Z,31.23
2023-09-06T08:28:09.641Z,31.16
2023-09-06T08:30:43.849Z,31.12
2023-09-06T08:33:15.884Z,30.90
2023-09-06T08:35:53.820Z,30.81
2023-09-06T08:38:29.462Z,31.13
2023-09-06T08:41:09.997Z,31.40
2023-09-06T08:43:45.176Z,31.43
2023-09-06T08:46:30.980Z,31.31
2023-09-06T08:49:06.913Z,31.29
2023-09-06T08:51:40.330Z,31.24
2023-09-06T08:54:15.521Z,30.51
2023-09-06T08:56:47.422Z,30.33
2023-09-06T08:59:25.733Z,30.65
2023-09-06T09:01:58.557Z,30.55
2023-09-06T09:04:33.177Z,30.69
2023-09-06T09:07:05.756Z,31.03
2023-09-06T09:10:15.137Z,30.77
2023-09-06T09:12:50.134Z,30.61
2023-09-06T09:17:59.917Z,30.40
2023-09-06T09:20:33.393Z,30.74
2023-09-06T09:23:13.795Z,30.64
2023-09-06T09:25:52.482Z,30.25
2023-09-06T09:28:33.304Z,30.56
2023-09-06T09:31:07.068Z,30.69
2023-09-06T09:33:39.437Z,30.81
2023-09-06T09:36:17.608Z,31.19
2023-09-06T09:38:56.902Z,31.57
2023-09-06T09:41:34.602Z,31.34
2023-09-06T09:44:16.508Z,31.30
2023-09-06T09:46:49.123Z,31.62
2023-09-06T09:49:23.805Z,32.03
2023-09-06T09:51:55.591Z,32.00
2023-09-06T09:54:33.654Z,31.71
2023-09-06T09:57:07.649Z,30.99
2023-09-06T09:59:40.336Z,31.15
2023-09-06T10:02:22.497Z,31.12
2023-09-06T10:05:01.775Z,31.03
2023-09-06T10:07:48.904Z,31.44
2023-09-06T10:10:23.745Z,31.20
2023-09-06T10:13:05.371Z,31.37
2023-09-06T10:15:40.908Z,31.61
2023-09-06T10:18:13.529Z,31.53
2023-09-06T10:20:48.641Z,31.82
2023-09-06T10:23:22.374Z,32.02
2023-09-06T10:25:55.722Z,32.24
2023-09-06T10:28:33.501Z,32.00
2023-09-06T10:31:11.708Z,31.87
2023-09-06T10:33:54.812Z,31.99
2023-09-06T10:36:30.067Z,32.00
2023-09-06T10:39:05.572Z,31.92
2023-09-06T10:42:15.027Z,31.79
2023-09-06T10:45:11.621Z,31.70
2023-09-06T10:47:46.739Z,31.48
2023-09-06T10:50:21.484Z,31.27
2023-09-06T10:53:00.237Z,31.37
2023-09-06T10:55:47.646Z,31.31
2023-09-06T10:58:26.222Z,31.43
2023-09-06T11:01:16.328Z,31.40
2023-09-06T11:03:51.562Z,31.78
2023-09-06T11:06:25.950Z,31.92
2023-09-06T11:09:09.278Z,31.68
2023-09-06T11:11:41.868Z,31.93
2023-09-06T11:14:13.660Z,32.12
2023-09-06T11:16:49.671Z,32.25
2023-09-06T11:19:29.659Z,32.30
2023-09-06T11:22:09.310Z,32.27
2023-09-06T11:24:42.452Z,32.19
2023-09-06T11:27:28.452Z,32.30
2023-09-06T11:30:33.884Z,32.21
2023-09-06T11:33:09.067Z,32.19
2023-09-06T11:35:49.718Z,32.02
2023-09-06T11:38:26.704Z,31.69
2023-09-06T11:40:59.975Z,31.59
2023-09-06T11:43:38.974Z,31.73
2023-09-06T11:49:22.623Z,31.76
2023-09-06T11:51:58.197Z,31.81
2023-09-06T11:54:33.041Z,31.95
2023-09-06T11:57:11.890Z,31.77
2023-09-06T11:59:44.909Z,31.51
2023-09-06T12:02:16.987Z,31.11
2023-09-06T12:04:53.964Z,30.92
2023-09-06T12:07:28.620Z,31.11
2023-09-06T12:10:04.679Z,31.31
2023-09-06T12:12:45.255Z,31.27
2023-09-06T12:15:21.637Z,30.79
2023-09-06T12:17:53.524Z,30.67
2023-09-06T12:20:25.970Z,30.64
2023-09-06T12:22:59.116Z,30.79
2023-09-06T12:25:31.662Z,30.67
2023-09-06T12:28:04.284Z,30.29
2023-09-06T12:30:44.800Z,30.29
2023-09-06T12:33:19.532Z,30.23
2023-09-06T12:36:02.420Z,30.50
2023-09-06T12:38:34.232Z,30.42
2023-09-06T12:41:06.200Z,30.35
2023-09-06T12:43:38.485Z,30.37
2023-09-06T12:46:12.688Z,30.28
2023-09-06T12:48:44.960Z,30.25
2023-09-06T12:51:21.725Z,30.34
2023-09-06T12:53:53.656Z,30.51
2023-09-06T12:56:25.463Z,30.48
2023-09-06T12:58:58.519Z,30.24
2023-09-06T13:01:58.662Z,30.03
2023-09-06T13:04:30.548Z,30.11
2023-09-06T13:07:05.376Z,30.04
2023-09-06T13:09:37.750Z,29.90
2023-09-06T13:12:17.129Z,29.84
2023-09-06T13:14:49.070Z,29.80
2023-09-06T13:17:23.950Z,29.81
2023-09-06T13:19:58.879Z,29.67
2023-09-06T13:22:32.203Z,29.59
2023-09-06T13:25:05.068Z,29.56
2023-09-06T13:27:39.855Z,29.56
2023-09-06T13:30:12.221Z,29.74
2023-09-06T13:32:46.701Z,29.93
2023-09-06T13:35:19.559Z,29.99
2023-09-06T13:37:51.463Z,29.88
2023-09-06T13:40:23.278Z,29.66
2023-09-06T13:42:57.030Z,29.52
2023-09-06T13:45:30.683Z,29.41
2023-09-06T13:48:02.675Z,29.35
2023-09-06T13:50:34.836Z,29.33
2023-09-06T13:53:06.600Z,29.28
2023-09-06T13:55:44.056Z,29.40
2023-09-06T13:58:16.061Z,29.46
2023-09-06T14:00:54.749Z,29.52
2023-09-06T14:03:32.907Z,29.56
2023-09-06T14:06:06.854Z,29.54
2023-09-06T14:08:38.650Z,29.44
2023-09-06T14:11:10.667Z,29.33
2023-09-06T14:13:42.634Z,29.18
2023-09-06T14:16:14.532Z,29.11
2023-09-06T14:18:48.341Z,29.07
2023-09-06T14:21:21.940Z,28.92
2023-09-06T14:23:53.919Z,28.76
2023-09-06T14:26:25.776Z,28.78
2023-09-06T14:28:57.880Z,28.82
2023-09-06T14:31:30.099Z,28.71
2023-09-06T14:34:03.354Z,28.75
2023-09-06T14:36:38.325Z,28.52
2023-09-06T14:39:10.177Z,28.54
2023-09-06T14:41:44.314Z,28.48
2023-09-06T14:44:17.470Z,28.48
2023-09-06T14:46:49.563Z,28.48
2023-09-06T14:49:21.640Z,28.39
2023-09-06T14:51:54.322Z,28.32
2023-09-06T14:54:29.964Z,28.26
2023-09-06T14:57:01.848Z,28.27
2023-09-06T14:59:39.709Z,28.25
2023-09-06T15:02:11.813Z,28.20
2023-09-06T15:04:43.568Z,28.15
2023-09-06T15:07:15.363Z,28.09
2023-09-06T15:09:50.217Z,28.05
2023-09-06T15:12:22.050Z,27.98
2023-09-06T15:14:54.524Z,27.92
2023-09-06T15:17:26.373Z,27.91
2023-09-06T15:19:58.154Z,27.80
2023-09-06T15:22:38.604Z,27.78
2023-09-06T15:25:12.937Z,27.78
2023-09-06T15:27:44.756Z,27.74
2023-09-06T15:30:16.626Z,27.65
2023-09-06T15:32:48.493Z,27.61
2023-09-06T15:35:29.073Z,27.56
2023-09-06T15:38:04.864Z,27.53
2023-09-06T15:40:36.924Z,27.55
2023-09-06T15:43:09.107Z,27.43
2023-09-06T15:45:41.062Z,27.37
2023-09-06T15:48:15.873Z,27.35
2023-09-06T15:50:48.213Z,27.34
2023-09-06T15:53:22.873Z,27.29
2023-09-06T15:55:57.552Z,27.22
2023-09-06T15:58:29.648Z,27.19
2023-09-06T16:01:05.600Z,27.17
2023-09-06T16:03:38.078Z,27.19
2023-09-06T16:06:09.937Z,27.16
2023-09-06T16:08:41.830Z,27.06
2023-09-06T16:11:13.617Z,27.04
2023-09-06T16:13:45.428Z,26.98
2023-09-06T16:16:19.300Z,26.97
2023-09-06T16:18:52.676Z,26.98
2023-09-06T16:21:26.991Z,26.97
2023-09-06T16:24:03.330Z,26.94
2023-09-06T16:26:35.427Z,26.85
2023-09-06T16:29:12.037Z,26.80
2023-09-06T16:31:44.889Z,26.72
2023-09-06T16:34:22.662Z,26.71
2023-09-06T16:36:56.588Z,26.70
2023-09-06T16:39:28.384Z,26.70
2023-09-06T16:42:01.293Z,26.65
2023-09-06T16:44:34.417Z,26.64
2023-09-06T16:47:08.678Z,26.61
2023-09-06T16:49:43.741Z,26.58
2023-09-06T16:52:15.599Z,26.57
2023-09-06T16:54:47.425Z,26.52
2023-09-06T16:57:19.142Z,26.43
2023-09-06T16:59:55.225Z,26.35
2023-09-06T17:02:27.080Z,26.29
2023-09-06T17:04:58.876Z,26.29
2023-09-06T17:07:30.657Z,26.26
2023-09-06T17:10:08.890Z,26.19
2023-09-06T17:12:41.035Z,26.13
2023-09-06T17:15:19.715Z,26.02
2023-09-06T17:17:51.766Z,25.98
2023-09-06T17:20:24.090Z,25.97
2023-09-06T17:22:58.838Z,25.89
2023-09-06T17:25:32.754Z,25.84
2023-09-06T17:28:06.090Z,25.80
2023-09-06T17:30:39.303Z,25.77
2023-09-06T17:33:14.445Z,25.73
2023-09-06T17:35:49.705Z,25.67
2023-09-06T17:38:22.152Z,25.64
2023-09-06T17:40:54.662Z,25.61
2023-09-06T17:43:29.328Z,25.52
2023-09-06T17:46:02.376Z,25.47
2023-09-06T17:48:34.749Z,25.40
2023-09-06T17:51:10.569Z,25.37
2023-09-06T17:53:45.539Z,25.32
2023-09-06T17:56:17.844Z,25.28
2023-09-06T17:58:54.161Z,25.21
2023-09-06T18:01:27.217Z,25.15
2023-09-06T18:03:59.870Z,25.08
2023-09-06T18:06:34.842Z,24.99
2023-09-06T18:09:09.105Z,24.92
2023-09-06T18:11:41.952Z,24.85
2023-09-06T18:14:14.303Z,24.76
2023-09-06T18:16:48.904Z,24.67
2023-09-06T18:19:26.592Z,24.59
2023-09-06T18:21:58.519Z,24.54
2023-09-06T18:24:33.215Z,24.47
2023-09-06T18:27:08.558Z,24.40
2023-09-06T18:29:40.991Z,24.34
2023-09-06T18:32:15.079Z,24.26
2023-09-06T18:34:47.500Z,24.19
2023-09-06T18:37:22.353Z,24.15
2023-09-06T18:40:00.174Z,24.10
2023-09-06T18:42:31.976Z,24.03
2023-09-06T18:45:03.960Z,23.95
2023-09-06T18:47:44.930Z,23.89
2023-09-06T18:50:19.020Z,23.83
2023-09-06T18:52:52.761Z,23.76
2023-09-06T18:55:24.833Z,23.71
2023-09-06T18:58:06.036Z,23.64
2023-09-06T19:00:42.244Z,23.57
2023-09-06T19:03:15.000Z,23.49
2023-09-06T19:05:47.661Z,23.43
2023-09-06T19:08:19.878Z,23.35
2023-09-06T19:10:51.773Z,23.26
2023-09-06T19:13:23.962Z,23.19
2023-09-06T19:15:59.817Z,23.10
2023-09-06T19:18:31.815Z,23.04
2023-09-06T19:21:03.962Z,22.98
2023-09-06T19:23:37.537Z,22.91
2023-09-06T19:26:10.155Z,22.82
2023-09-06T19:28:41.892Z,22.76
2023-09-06T19:31:13.898Z,22.70
2023-09-06T19:33:45.788Z,22.63
2023-09-06T19:36:18.095Z,22.59
2023-09-06T19:38:49.965Z,22.53
2023-09-06T19:41:22.144Z,22.49
2023-09-06T19:43:54.337Z,22.43
2023-09-06T19:46:26.716Z,22.37
2023-09-06T19:49:06.939Z,22.31
2023-09-06T19:51:41.247Z,22.26
2023-09-06T19:54:13.078Z,22.20
2023-09-06T19:56:44.970Z,22.17
2023-09-06T19:59:17.124Z,22.10
2023-09-06T20:01:51.495Z,22.03
2023-09-06T20:04:23.902Z,21.97
2023-09-06T20:06:56.094Z,21.91
2023-09-06T20:09:31.959Z,21.84
2023-09-06T20:12:08.068Z,21.77
2023-09-06T20:14:41.336Z,21.69
2023-09-06T20:17:13.175Z,21.64
2023-09-06T20:19:49.388Z,21.60
2023-09-06T20:22:21.256Z,21.53
2023-09-06T20:24:53.142Z,21.47
2023-09-06T20:27:26.587Z,21.43
2023-09-06T20:29:58.521Z,21.38
2023-09-06T20:32:30.375Z,21.32
2023-09-06T20:35:02.238Z,21.26
2023-09-06T20:37:34.027Z,21.22
2023-09-06T20:40:07.885Z,21.20
2023-09-06T20:42:39.746Z,21.19
2023-09-06T20:45:11.501Z,21.19
2023-09-06T20:47:43.722Z,21.19
2023-09-06T20:50:20.709Z,21.16
2023-09-06T20:52:52.464Z,21.14
2023-09-06T20:55:24.288Z,21.13
2023-09-06T20:57:59.129Z,21.11
2023-09-06T21:00:31.038Z,21.11
2023-09-06T21:03:03.824Z,21.11
2023-09-06T21:05:38.507Z,21.07
2023-09-06T21:08:12.900Z,21.07
2023-09-06T21:10:45.044Z,21.05
2023-09-06T21:13:16.915Z,21.03
2023-09-06T21:15:53.306Z,21.02
2023-09-06T21:18:25.222Z,21.00
2023-09-06T21:20:59.971Z,20.99
2023-09-06T21:23:32.254Z,20.98
2023-09-06T21:26:13.526Z,20.95
2023-09-06T21:28:45.220Z,20.91
2023-09-06T21:31:17.080Z,20.90
2023-09-06T21:33:49.658Z,20.85
2023-09-06T21:36:27.658Z,20.82
2023-09-06T21:39:00.166Z,20.80
2023-09-06T21:41:32.748Z,20.74
2023-09-06T21:44:04.789Z,20.71
2023-09-06T21:46:36.718Z,20.68
2023-09-06T21:49:08.622Z,20.67
2023-09-06T21:51:47.561Z,20.65
2023-09-06T21:54:24.445Z,20.62
2023-09-06T21:56:56.356Z,20.60
2023-09-06T21:59:28.104Z,20.56
2023-09-06T22:01:59.786Z,20.52
2023-09-06T22:04:50.388Z,20.50
2023-09-06T22:07:40.767Z,20.48
2023-09-06T22:10:31.212Z,20.44
2023-09-06T22:13:24.467Z,20.41
2023-09-06T22:15:56.613Z,20.38
2023-09-06T22:18:30.205Z,20.34
2023-09-06T22:21:06.871Z,20.30
2023-09-06T22:23:41.664Z,20.27
2023-09-06T22:26:13.451Z,20.26
2023-09-06T22:28:45.281Z,20.25
2023-09-06T22:31:20.571Z,20.23
2023-09-06T22:33:55.136Z,20.18
2023-09-06T22:36:26.901Z,20.14
2023-09-06T22:38:58.968Z,20.13
2023-09-06T22:41:31.824Z,20.10
2023-09-06T22:44:04.068Z,20.08
2023-09-06T22:46:37.998Z,20.03
2023-09-06T22:49:09.854Z,20.00
2023-09-06T22:51:43.509Z,19.95
2023-09-06T22:54:15.418Z,19.94
2023-09-06T22:56:47.403Z,19.93
2023-09-06T22:59:19.203Z,19.90
2023-09-06T23:01:52.330Z,19.89
2023-09-06T23:04:24.295Z,19.86
2023-09-06T23:06:56.637Z,19.82
2023-09-06T23:09:31.051Z,19.79
2023-09-06T23:12:05.526Z,19.76
2023-09-06T23:14:38.284Z,19.71
2023-09-06T23:17:12.230Z,19.69
2023-09-06T23:19:49.674Z,19.67
2023-09-06T23:22:25.175Z,19.64
2023-09-06T23:24:58.224Z,19.62
2023-09-06T23:27:30.884Z,19.62
2023-09-06T23:30:09.723Z,19.57
2023-09-06T23:32:51.773Z,19.55
2023-09-06T23:35:23.872Z,19.52
2023-09-06T23:37:59.382Z,19.51
2023-09-06T23:40:33.219Z,19.48
2023-09-06T23:43:08.991Z,19.43
2023-09-06T23:45:46.022Z,19.39
2023-09-06T23:48:21.054Z,19.35
2023-09-06T23:50:56.823Z,19.32
2023-09-06T23:53:28.613Z,19.29
2023-09-06T23:56:04.710Z,19.27
2023-09-06T23:58:38.964Z,19.27
